Time;durP1;ratioP1;P1;durP2;ratioP2;P2;SDS_P1;SDS_P2;PMS_P1;PMS_P2;Temp;Humidity;BMP_temperature;BMP_pressure;BME280_temperature;BME280_humidity;BME280_pressure;Samples;Min_cycle;Max_cycle;Signal;HPM_P1;HPM_P2
2022/05/30 00:02:10;;;;;;;10.05;9.15;;;;;;;16.24;74.67;94249.34;4985206;28;20242;-68
2022/05/30 00:04:37;;;;;;;10.80;9.38;;;;;;;16.08;75.49;94249.75;4985623;28;20301;-65
2022/05/30 00:07:05;;;;;;;10.40;8.68;;;;;;;16.05;75.79;94247.53;4986343;28;20198;-66
2022/05/30 00:09:34;;;;;;;8.60;7.70;;;;;;;16.10;76.01;94250.38;5000711;28;20226;-62
2022/05/30 00:12:01;;;;;;;8.65;7.90;;;;;;;16.22;76.90;94264.66;4988767;28;20232;-69
2022/05/30 00:14:26;;;;;;;7.55;6.90;;;;;;;16.07;77.09;94259.56;5001530;28;20590;-67
2022/05/30 00:16:52;;;;;;;7.93;6.97;;;;;;;15.88;77.68;94252.44;4981143;28;20219;-66
2022/05/30 00:19:18;;;;;;;6.60;5.90;;;;;;;16.05;76.75;94264.25;4970498;28;20207;-67
2022/05/30 00:21:52;;;;;;;7.38;6.72;;;;;;;16.19;75.33;94264.25;4980252;28;20262;-69
2022/05/30 00:24:17;;;;;;;7.68;6.47;;;;;;;16.23;75.11;94263.63;4975386;28;20223;-65
2022/05/30 00:26:43;;;;;;;6.65;6.05;;;;;;;16.19;75.66;94265.06;4976279;28;20231;-68
2022/05/30 00:29:08;;;;;;;6.75;6.05;;;;;;;16.20;75.83;94264.06;4988856;28;20215;-62
2022/05/30 00:31:35;;;;;;;7.60;6.18;;;;;;;16.25;75.04;94258.13;4989604;28;20237;-67
2022/05/30 00:34:01;;;;;;;7.50;6.80;;;;;;;16.21;75.00;94260.38;4984551;28;20215;-62
2022/05/30 00:36:27;;;;;;;7.20;6.50;;;;;;;16.10;75.40;94253.03;4999997;28;20267;-62
2022/05/30 00:38:55;;;;;;;7.25;6.40;;;;;;;15.99;76.15;94251.00;4984066;28;20242;-66
2022/05/30 00:41:21;;;;;;;7.50;6.45;;;;;;;16.01;76.08;94255.09;4981065;28;20238;-69
2022/05/30 00:43:47;;;;;;;6.70;6.10;;;;;;;15.99;76.24;94264.25;5000785;28;20219;-62
2022/05/30 00:46:15;;;;;;;6.97;6.47;;;;;;;15.91;76.46;94267.94;4986952;28;20234;-66
2022/05/30 00:49:00;;;;;;;8.32;7.63;;;;;;;16.06;75.58;94270.38;4984121;28;20241;-67
2022/05/30 00:51:51;;;;;;;8.10;7.40;;;;;;;16.11;74.66;94270.56;4966357;28;20270;-63
2022/05/30 00:54:32;;;;;;;8.98;8.10;;;;;;;15.93;75.19;94267.69;4909160;29;20261;-68
2022/05/30 00:56:59;;;;;;;10.70;7.85;;;;;;;15.87;75.84;94266.69;4908324;29;20237;-64
2022/05/30 00:59:25;;;;;;;8.98;8.07;;;;;;;15.85;76.37;94268.72;4919191;29;20242;-66
2022/05/30 01:01:50;;;;;;;9.05;8.15;;;;;;;15.92;75.99;94266.09;4916238;29;20239;-62
2022/05/30 01:07:05;;;;;;;10.02;9.10;;;;;;;15.84;75.35;94269.75;4927524;29;20228;-70
2022/05/30 01:09:33;;;;;;;9.02;8.20;;;;;;;15.85;75.74;94268.72;4925295;29;20232;-65
2022/05/30 01:12:05;;;;;;;9.55;8.75;;;;;;;15.91;76.00;94267.13;4912065;29;20618;-61
2022/05/30 01:14:35;;;;;;;9.57;8.70;;;;;;;15.85;75.59;94263.41;4909183;29;20234;-68
2022/05/30 01:17:02;;;;;;;9.32;8.40;;;;;;;15.70;76.34;94265.44;4913202;29;20284;-62
2022/05/30 01:19:43;;;;;;;9.88;8.75;;;;;;;15.62;77.25;94269.06;4908256;29;20221;-66
2022/05/30 01:22:37;;;;;;;9.80;7.72;;;;;;;15.63;76.15;94255.59;4926901;29;20312;-69
2022/05/30 01:25:05;;;;;;;8.55;7.72;;;;;;;15.70;75.48;94268.09;4867455;29;20309;-64
2022/05/30 01:27:43;;;;;;;7.85;7.13;;;;;;;15.53;76.78;94278.22;4868720;29;20227;-69
2022/05/30 01:30:12;;;;;;;8.13;7.03;;;;;;;15.41;76.64;94278.78;4855381;29;20228;-67
2022/05/30 01:32:38;;;;;;;7.40;6.60;;;;;;;15.33;77.68;94270.22;4886420;29;20317;-69
2022/05/30 01:35:04;;;;;;;8.55;6.93;;;;;;;15.50;77.17;94274.13;4894015;29;20238;-69
2022/05/30 01:37:29;;;;;;;8.07;7.13;;;;;;;15.50;76.07;94270.66;4910935;29;20214;-65
2022/05/30 01:39:55;;;;;;;9.20;7.68;;;;;;;15.48;76.14;94283.31;4900504;29;20246;-62
2022/05/30 01:42:21;;;;;;;8.48;7.30;;;;;;;15.13;77.56;94273.63;4891996;29;20226;-68
2022/05/30 01:44:46;;;;;;;8.13;7.32;;;;;;;15.09;77.67;94276.84;4907229;29;20252;-67
2022/05/30 01:47:12;;;;;;;8.75;7.82;;;;;;;15.04;78.03;94272.13;4909945;29;20218;-67
2022/05/30 01:49:37;;;;;;;8.55;7.65;;;;;;;15.12;77.48;94271.97;4908405;29;20209;-69
2022/05/30 01:52:03;;;;;;;8.35;7.25;;;;;;;15.06;78.31;94279.91;4905548;29;20266;-69
2022/05/30 01:54:30;;;;;;;7.95;7.10;;;;;;;15.04;78.77;94276.63;4906708;29;20666;-69
2022/05/30 01:56:55;;;;;;;8.48;7.68;;;;;;;15.19;77.57;94282.59;4906308;29;20249;-68
2022/05/30 01:59:21;;;;;;;8.60;7.03;;;;;;;15.09;77.68;94279.50;4904312;29;20238;-65
2022/05/30 02:01:46;;;;;;;8.07;6.97;;;;;;;15.10;77.98;94287.25;4939015;28;20227;-69
2022/05/30 02:04:15;;;;;;;7.95;6.85;;;;;;;15.09;78.38;94288.25;4989332;28;20215;-62
2022/05/30 02:06:41;;;;;;;8.25;7.45;;;;;;;15.10;78.08;94286.41;4957190;28;20227;-67
2022/05/30 02:09:07;;;;;;;10.25;7.38;;;;;;;15.09;77.95;94282.16;4968040;28;20223;-64
2022/05/30 02:11:33;;;;;;;9.65;8.48;;;;;;;15.16;78.02;94288.28;4972570;28;20226;-68
2022/05/30 02:13:59;;;;;;;9.27;7.82;;;;;;;15.06;78.19;94301.88;4989225;28;20223;-69
2022/05/30 02:19:09;;;;;;;8.70;7.80;;;;;;;15.08;77.69;94305.16;4982042;28;20293;-65
2022/05/30 02:21:35;;;;;;;8.73;8.02;;;;;;;14.94;78.86;94311.38;4967659;28;20227;-63
2022/05/30 02:24:02;;;;;;;8.80;7.90;;;;;;;14.97;78.48;94293.31;4965559;28;20227;-68
2022/05/30 02:26:28;;;;;;;7.85;6.93;;;;;;;14.90;78.88;94305.69;4975705;28;20507;-62
2022/05/30 02:28:53;;;;;;;9.07;7.55;;;;;;;15.02;78.66;94303.28;4983481;28;20318;-67
2022/05/30 02:31:19;;;;;;;9.25;8.38;;;;;;;15.08;78.30;94309.66;4967899;28;20203;-62
2022/05/30 02:36:40;;;;;;;9.60;7.88;;;;;;;14.97;78.22;94303.91;4941894;29;20320;-65
2022/05/30 02:39:12;;;;;;;9.98;8.10;;;;;;;15.03;78.30;94312.06;4926636;29;20244;-62
2022/05/30 02:41:40;;;;;;;9.18;8.27;;;;;;;14.89;78.97;94316.44;4926773;28;20229;-65
2022/05/30 02:44:06;;;;;;;9.32;7.63;;;;;;;14.81;79.37;94309.50;4927548;29;20225;-65
2022/05/30 02:46:31;;;;;;;9.15;8.20;;;;;;;14.94;78.95;94309.59;4933498;29;20220;-66
2022/05/30 02:48:57;;;;;;;9.43;8.02;;;;;;;15.09;78.38;94316.56;4945054;29;20295;-69
2022/05/30 02:51:23;;;;;;;9.27;8.35;;;;;;;15.09;77.79;94314.72;4927008;28;20288;-63
2022/05/30 02:53:48;;;;;;;10.20;8.65;;;;;;;14.70;79.41;94323.25;4941915;29;20232;-66
2022/05/30 02:56:15;;;;;;;12.07;8.65;;;;;;;14.96;78.46;94322.59;4926669;29;20319;-67
2022/05/30 02:58:42;;;;;;;9.02;8.10;;;;;;;14.96;78.63;94333.19;4931167;29;20232;-64
2022/05/30 03:01:08;;;;;;;8.32;7.53;;;;;;;14.69;79.30;94333.03;4927098;29;20282;-68
2022/05/30 03:03:33;;;;;;;8.07;7.13;;;;;;;14.78;79.40;94336.34;4931355;29;20247;-68
2022/05/30 03:05:59;;;;;;;8.63;7.40;;;;;;;14.87;78.80;94339.66;4926833;29;20229;-68
2022/05/30 03:08:24;;;;;;;8.07;7.22;;;;;;;15.09;77.97;94343.84;4929359;29;20225;-62
2022/05/30 03:10:50;;;;;;;8.45;6.88;;;;;;;15.04;77.47;94353.41;4942013;29;20847;-63
2022/05/30 03:13:19;;;;;;;9.43;7.13;;;;;;;15.09;76.79;94358.94;4945403;28;20504;-67
2022/05/30 03:15:44;;;;;;;7.55;6.63;;;;;;;14.82;77.86;94361.41;4965384;28;20258;-67
2022/05/30 03:18:10;;;;;;;7.85;7.00;;;;;;;14.91;78.08;94368.19;4982619;28;20250;-70
2022/05/30 03:20:36;;;;;;;7.95;7.07;;;;;;;14.93;77.48;94376.75;4981720;28;20227;-64
2022/05/30 03:23:01;;;;;;;8.20;7.40;;;;;;;14.89;77.62;94380.81;4967594;28;20223;-68
2022/05/30 03:25:27;;;;;;;10.25;6.65;;;;;;;14.96;77.18;94392.25;4967833;28;20322;-66
2022/05/30 03:27:55;;;;;;;9.38;7.50;;;;;;;14.99;76.75;94391.88;4965873;28;20243;-66
2022/05/30 03:30:21;;;;;;;7.15;6.45;;;;;;;14.89;75.77;94399.34;4982425;28;20242;-66
2022/05/30 03:32:46;;;;;;;8.10;6.50;;;;;;;14.76;75.36;94394.78;5004679;28;20265;-62
2022/05/30 03:35:13;;;;;;;7.03;6.32;;;;;;;14.93;75.28;94397.13;4983251;28;20275;-62
2022/05/30 03:37:39;;;;;;;6.20;5.60;;;;;;;15.03;74.87;94402.91;4978923;28;20277;-65
2022/05/30 03:40:07;;;;;;;9.27;6.25;;;;;;;15.06;73.88;94418.38;4985453;28;20204;-69
2022/05/30 03:42:33;;;;;;;7.50;6.15;;;;;;;15.05;73.32;94414.13;4967950;28;20798;-68
2022/05/30 03:44:59;;;;;;;7.07;5.75;;;;;;;15.08;73.22;94419.03;4972540;28;20215;-61
2022/05/30 03:47:24;;;;;;;11.18;6.55;;;;;;;15.00;72.94;94425.28;4969470;28;20294;-67
2022/05/30 03:49:50;;;;;;;7.03;6.32;;;;;;;15.02;72.98;94426.91;4947881;28;20549;-68
2022/05/30 03:52:15;;;;;;;7.10;6.50;;;;;;;15.06;72.84;94433.47;4967275;28;20203;-62
2022/05/30 03:54:41;;;;;;;8.48;6.25;;;;;;;15.06;72.40;94434.28;4963563;28;20254;-66
2022/05/30 03:57:06;;;;;;;7.38;6.47;;;;;;;15.08;72.14;94440.19;4966304;28;20224;-63
2022/05/30 03:59:32;;;;;;;7.07;5.97;;;;;;;15.02;71.70;94438.31;4975793;28;20599;-68
2022/05/30 04:01:58;;;;;;;6.72;6.07;;;;;;;15.13;71.48;94444.91;5000778;28;20237;-69
2022/05/30 04:04:23;;;;;;;8.25;6.22;;;;;;;14.93;72.12;94448.22;4998647;28;20227;-66
2022/05/30 04:06:49;;;;;;;8.13;6.13;;;;;;;14.99;71.86;94450.13;4983911;28;20364;-64
2022/05/30 04:09:15;;;;;;;7.90;6.35;;;;;;;15.16;70.73;94455.94;4985655;28;20523;-68
2022/05/30 04:11:40;;;;;;;6.57;5.97;;;;;;;15.28;70.36;94453.56;4972967;28;20235;-67
2022/05/30 04:14:05;;;;;;;7.78;6.35;;;;;;;15.36;70.35;94449.94;4991902;28;20230;-64
2022/05/30 04:16:31;;;;;;;8.85;6.93;;;;;;;15.41;69.68;94458.94;4970429;28;20203;-67
2022/05/30 04:18:57;;;;;;;7.13;6.07;;;;;;;15.40;69.71;94457.31;5000061;28;20199;-63
2022/05/30 04:21:22;;;;;;;8.32;6.38;;;;;;;15.46;68.86;94458.38;5000645;28;20223;-63
2022/05/30 04:23:48;;;;;;;8.23;5.90;;;;;;;15.55;68.53;94465.13;4985743;28;20219;-61
2022/05/30 04:26:15;;;;;;;7.45;6.25;;;;;;;15.42;69.20;94471.19;4990062;28;20226;-68
2022/05/30 04:28:41;;;;;;;7.47;6.10;;;;;;;15.42;69.45;94471.19;4971674;28;20230;-61
2022/05/30 04:31:13;;;;;;;7.40;6.70;;;;;;;15.43;69.85;94477.31;4973233;28;20210;-62
2022/05/30 04:33:40;;;;;;;7.90;6.45;;;;;;;15.39;69.27;94476.84;5005184;28;20235;-62
2022/05/30 04:36:11;;;;;;;8.82;6.63;;;;;;;15.43;69.34;94472.00;4973354;28;20262;-67
2022/05/30 04:38:37;;;;;;;7.97;6.57;;;;;;;15.34;69.52;94474.00;4973112;28;20229;-61
2022/05/30 04:41:03;;;;;;;8.45;6.47;;;;;;;15.31;69.81;94474.34;5003537;28;20227;-68
2022/05/30 04:43:29;;;;;;;7.18;6.47;;;;;;;15.35;69.65;94472.97;4968471;28;20215;-66
2022/05/30 04:46:05;;;;;;;7.80;6.75;;;;;;;15.26;70.57;94471.47;4968465;28;20208;-63
2022/05/30 04:48:30;;;;;;;8.15;7.05;;;;;;;15.42;70.43;94467.69;4978387;28;20353;-62
2022/05/30 04:50:56;;;;;;;7.28;6.65;;;;;;;15.47;67.97;94464.47;4986258;28;20246;-64
2022/05/30 04:53:21;;;;;;;7.63;6.93;;;;;;;15.27;69.17;94474.97;4987551;28;20284;-67
2022/05/30 04:55:49;;;;;;;7.60;6.13;;;;;;;15.39;69.27;94479.50;4975626;28;20332;-68
2022/05/30 04:58:15;;;;;;;7.45;6.75;;;;;;;15.38;69.62;94479.72;4984412;28;20204;-69
2022/05/30 05:00:40;;;;;;;7.95;7.25;;;;;;;15.48;69.84;94476.72;4970957;28;20618;-61
2022/05/30 05:03:06;;;;;;;9.25;7.40;;;;;;;15.64;70.22;94484.34;5001245;28;20226;-66
2022/05/30 05:05:31;;;;;;;9.35;7.38;;;;;;;15.65;70.11;94483.34;4982856;28;20227;-65
2022/05/30 05:08:15;;;;;;;8.52;7.70;;;;;;;15.76;69.96;94490.75;4985002;28;20227;-65
2022/05/30 05:10:48;;;;;;;9.07;8.20;;;;;;;15.74;68.79;94492.78;4974803;28;20265;-68
2022/05/30 05:13:19;;;;;;;10.02;9.02;;;;;;;15.77;69.30;94495.06;4997927;28;20199;-63
2022/05/30 05:15:45;;;;;;;9.85;8.95;;;;;;;15.87;68.89;94495.50;4982743;28;20239;-66
2022/05/30 05:18:10;;;;;;;10.10;8.77;;;;;;;15.92;69.52;94496.75;4985674;28;20220;-63
2022/05/30 05:20:38;;;;;;;10.80;9.70;;;;;;;15.95;68.97;94501.66;4983904;28;20428;-64
2022/05/30 05:23:04;;;;;;;10.13;9.07;;;;;;;16.01;68.54;94492.91;4983765;28;20238;-66
2022/05/30 05:25:30;;;;;;;11.77;10.05;;;;;;;16.23;67.95;94504.22;4985852;28;20203;-63
2022/05/30 05:27:55;;;;;;;10.63;9.60;;;;;;;16.00;69.50;94504.53;4985886;28;20221;-65
2022/05/30 05:30:20;;;;;;;11.35;10.23;;;;;;;15.92;69.41;94502.06;4977434;28;20735;-65
2022/05/30 05:32:46;;;;;;;11.85;10.60;;;;;;;16.11;68.97;94501.31;4974167;28;20353;-65
2022/05/30 05:35:11;;;;;;;13.60;11.52;;;;;;;16.08;70.29;94502.53;4974345;28;20262;-66
2022/05/30 05:37:38;;;;;;;12.85;11.48;;;;;;;15.95;69.74;94502.47;4964274;28;20200;-60
2022/05/30 05:40:04;;;;;;;13.15;11.43;;;;;;;16.16;70.50;94501.53;4976956;28;20238;-62
2022/05/30 05:42:29;;;;;;;15.48;12.45;;;;;;;16.18;70.71;94504.81;4985311;28;20350;-65
2022/05/30 05:44:55;;;;;;;13.55;12.27;;;;;;;16.31;69.73;94510.16;4978075;28;20285;-64
2022/05/30 05:47:20;;;;;;;14.15;12.80;;;;;;;16.67;68.03;94505.53;4975666;28;20219;-60
2022/05/30 05:49:45;;;;;;;15.27;12.60;;;;;;;16.67;67.13;94509.00;4976337;28;20222;-60
2022/05/30 05:52:11;;;;;;;15.15;13.55;;;;;;;16.61;67.19;94509.00;4978123;28;20188;-64
2022/05/30 05:54:37;;;;;;;15.27;13.82;;;;;;;16.79;66.69;94519.91;4978563;28;20352;-64
2022/05/30 05:57:03;;;;;;;16.92;15.13;;;;;;;16.85;66.18;94510.31;4965319;28;20219;-64
2022/05/30 05:59:28;;;;;;;15.05;13.60;;;;;;;16.85;66.40;94511.13;4978571;28;20226;-64
2022/05/30 06:01:56;;;;;;;15.68;13.98;;;;;;;16.97;65.98;94516.63;4974428;28;20235;-67
2022/05/30 06:04:22;;;;;;;15.68;13.55;;;;;;;17.09;65.58;94524.84;4977075;28;20267;-65
2022/05/30 06:06:47;;;;;;;16.23;14.63;;;;;;;17.00;66.66;94521.56;4978045;28;20349;-67
2022/05/30 06:09:16;;;;;;;17.05;14.93;;;;;;;17.17;67.25;94514.81;4976020;28;20231;-67
2022/05/30 06:11:41;;;;;;;16.48;14.90;;;;;;;17.22;65.92;94518.72;4979891;28;20254;-62
2022/05/30 06:14:07;;;;;;;17.58;15.38;;;;;;;17.51;65.10;94520.94;4974195;28;20219;-62
2022/05/30 06:16:37;;;;;;;18.42;16.05;;;;;;;17.59;65.30;94525.22;4962444;28;20195;-64
2022/05/30 06:19:04;;;;;;;18.67;16.75;;;;;;;17.82;65.45;94530.91;4963500;28;21551;-65
2022/05/30 06:21:31;;;;;;;18.52;16.60;;;;;;;17.91;64.85;94536.00;4996412;28;20305;-67
2022/05/30 06:23:57;;;;;;;20.23;18.23;;;;;;;17.95;64.93;94534.56;4959513;28;20223;-63
2022/05/30 06:26:25;;;;;;;18.58;16.75;;;;;;;17.93;64.78;94537.44;4972901;28;20234;-62
2022/05/30 06:28:54;;;;;;;19.05;15.93;;;;;;;17.98;65.04;94548.25;4972252;28;20235;-67
2022/05/30 06:31:26;;;;;;;19.05;17.35;;;;;;;18.15;64.26;94548.63;4971521;28;20195;-64
2022/05/30 06:33:53;;;;;;;17.05;15.48;;;;;;;18.10;63.59;94548.44;4982650;28;20445;-63
2022/05/30 06:36:22;;;;;;;16.35;14.68;;;;;;;18.04;63.83;94558.09;4997586;28;20231;-63
2022/05/30 06:38:49;;;;;;;17.13;15.52;;;;;;;17.98;63.78;94550.91;4973607;28;20227;-63
2022/05/30 06:41:20;;;;;;;16.27;14.82;;;;;;;18.17;64.71;94551.06;4976251;28;20605;-62
2022/05/30 06:43:46;;;;;;;16.23;14.68;;;;;;;18.47;63.70;94554.84;4976499;28;20235;-62
2022/05/30 06:46:13;;;;;;;16.23;14.73;;;;;;;18.59;63.43;94555.00;4987250;28;20249;-60
2022/05/30 06:48:43;;;;;;;16.40;14.70;;;;;;;18.67;63.18;94548.63;4979741;28;20457;-63
2022/05/30 06:51:12;;;;;;;15.52;14.02;;;;;;;18.55;63.02;94550.28;4983929;28;20239;-63
2022/05/30 06:53:40;;;;;;;15.35;13.90;;;;;;;18.49;62.75;94557.28;4983875;28;20223;-67
2022/05/30 06:56:22;;;;;;;14.18;12.98;;;;;;;18.44;61.65;94559.78;4986154;28;20233;-66
2022/05/30 06:58:50;;;;;;;13.43;12.13;;;;;;;18.44;62.03;94560.63;4984765;28;20258;-64
2022/05/30 07:01:17;;;;;;;14.35;12.88;;;;;;;18.52;61.13;94565.69;4980833;28;20262;-67
2022/05/30 07:03:45;;;;;;;14.05;12.80;;;;;;;18.62;61.09;94559.91;4964249;28;20413;-66
2022/05/30 07:06:13;;;;;;;13.40;12.00;;;;;;;18.86;59.19;94561.03;4961704;28;20339;-62
2022/05/30 07:08:41;;;;;;;13.32;12.07;;;;;;;18.87;60.19;94568.00;4984894;28;20242;-60
2022/05/30 07:11:07;;;;;;;14.50;13.10;;;;;;;18.94;60.91;94559.97;4976352;28;20226;-63
2022/05/30 07:13:33;;;;;;;14.02;12.32;;;;;;;18.82;61.63;94557.16;4978857;28;20303;-65
2022/05/30 07:15:58;;;;;;;14.63;13.27;;;;;;;19.00;60.31;94556.41;4954930;28;20220;-66
2022/05/30 07:18:24;;;;;;;14.88;13.32;;;;;;;19.07;59.64;94551.06;4962665;28;20239;-66
2022/05/30 07:21:03;;;;;;;12.85;11.57;;;;;;;19.07;60.91;94548.41;4979287;28;20231;-67
2022/05/30 07:23:31;;;;;;;14.63;12.27;;;;;;;19.26;59.53;94552.75;4981494;28;20251;-61
2022/05/30 07:26:03;;;;;;;15.63;12.05;;;;;;;19.21;61.02;94555.25;4964678;28;20219;-66
2022/05/30 07:28:29;;;;;;;14.70;13.25;;;;;;;19.12;59.48;94560.03;4966180;28;20210;-61
2022/05/30 07:31:03;;;;;;;14.18;12.88;;;;;;;19.20;59.41;94556.31;4965598;28;20226;-63
2022/05/30 07:33:28;;;;;;;15.48;13.75;;;;;;;19.41;58.55;94555.13;4995491;28;20234;-61
2022/05/30 07:35:54;;;;;;;13.93;11.82;;;;;;;19.53;58.46;94552.56;4970149;28;20220;-62
2022/05/30 07:38:19;;;;;;;13.55;12.15;;;;;;;19.51;59.21;94558.13;4972464;28;20234;-67
2022/05/30 07:40:45;;;;;;;15.75;13.85;;;;;;;19.50;58.13;94558.31;4982576;28;20543;-60
2022/05/30 07:43:10;;;;;;;13.85;12.45;;;;;;;19.44;58.53;94551.22;4966987;28;20208;-60
2022/05/30 07:45:36;;;;;;;13.02;11.85;;;;;;;19.38;59.01;94559.03;4987611;28;20214;-66
2022/05/30 07:48:02;;;;;;;14.27;12.20;;;;;;;19.34;60.03;94557.81;4982525;28;20251;-61
2022/05/30 07:50:28;;;;;;;15.52;14.00;;;;;;;19.18;60.91;94558.38;4989068;28;20309;-66
2022/05/30 07:52:53;;;;;;;16.63;14.20;;;;;;;19.08;60.81;94558.00;4985209;28;20354;-66
2022/05/30 07:55:19;;;;;;;14.25;12.80;;;;;;;19.14;60.76;94560.66;4986501;28;20211;-65
2022/05/30 07:57:50;;;;;;;14.18;12.60;;;;;;;19.31;58.98;94562.78;4968626;28;20226;-65
2022/05/30 08:00:18;;;;;;;15.00;12.60;;;;;;;19.22;60.21;94564.91;4979925;28;20366;-67
2022/05/30 08:02:44;;;;;;;12.80;11.07;;;;;;;19.26;59.24;94560.75;4988546;28;20235;-67
2022/05/30 08:05:11;;;;;;;11.63;10.52;;;;;;;19.37;58.80;94562.72;4974477;28;20226;-67
2022/05/30 08:07:37;;;;;;;12.48;11.32;;;;;;;19.51;58.83;94571.44;4978887;28;20282;-67
2022/05/30 08:10:04;;;;;;;13.02;11.77;;;;;;;19.63;58.43;94574.22;4985747;28;20802;-64
2022/05/30 08:12:31;;;;;;;14.82;12.00;;;;;;;19.70;58.23;94560.84;5000882;28;20245;-62
2022/05/30 08:14:57;;;;;;;13.48;12.27;;;;;;;19.53;59.21;94560.56;4985111;28;20230;-68
2022/05/30 08:17:23;;;;;;;12.60;11.50;;;;;;;19.48;60.49;94563.88;4985364;28;20344;-64
2022/05/30 08:19:48;;;;;;;12.95;11.75;;;;;;;19.69;60.11;94564.53;4987960;28;20261;-68
2022/05/30 08:22:14;;;;;;;12.88;11.50;;;;;;;19.70;59.35;94552.84;5002163;28;20230;-70
2022/05/30 08:24:43;;;;;;;12.43;10.93;;;;;;;19.96;58.61;94559.78;4976636;28;20238;-61
2022/05/30 08:27:09;;;;;;;13.23;10.02;;;;;;;19.86;57.84;94552.28;4979341;28;20238;-63
2022/05/30 08:29:35;;;;;;;10.98;9.98;;;;;;;19.82;57.43;94551.91;4988586;28;20581;-66
2022/05/30 08:32:01;;;;;;;14.00;11.00;;;;;;;19.81;59.36;94552.13;4997160;28;20250;-66
2022/05/30 08:34:27;;;;;;;11.55;9.77;;;;;;;19.89;58.91;94551.00;4985871;28;20207;-67
2022/05/30 08:36:52;;;;;;;10.13;9.15;;;;;;;20.05;58.76;94553.13;4987247;28;20198;-68
2022/05/30 08:42:03;;;;;;;10.57;9.23;;;;;;;20.11;54.01;94552.22;4998272;28;20302;-68
2022/05/30 08:44:30;;;;;;;9.18;8.38;;;;;;;20.03;55.05;94557.84;4983994;28;20222;-62
2022/05/30 08:47:21;;;;;;;12.00;9.65;;;;;;;20.17;55.84;94564.69;4983036;28;20227;-67
2022/05/30 08:49:50;;;;;;;12.43;9.82;;;;;;;20.43;55.84;94568.91;4984356;28;20253;-65
2022/05/30 08:52:32;;;;;;;10.48;7.95;;;;;;;20.42;54.04;94569.13;4984687;28;20218;-65
2022/05/30 08:55:10;;;;;;;9.45;8.13;;;;;;;20.38;54.66;94565.28;4979407;28;20271;-63
2022/05/30 08:58:14;;;;;;;9.40;8.55;;;;;;;20.28;54.43;94569.28;4986265;28;20917;-63
2022/05/30 09:00:56;;;;;;;9.93;8.95;;;;;;;20.27;54.67;94559.63;4893035;29;20242;-63
2022/05/30 09:03:43;;;;;;;10.35;9.35;;;;;;;20.36;55.07;94562.00;4866211;29;20585;-65
2022/05/30 09:06:18;;;;;;;10.73;9.40;;;;;;;20.55;54.91;94560.16;4881285;29;20245;-64
2022/05/30 09:08:53;;;;;;;9.02;8.15;;;;;;;20.48;54.72;94562.91;4865771;29;20262;-68
2022/05/30 09:11:29;;;;;;;9.27;8.20;;;;;;;20.50;54.86;94568.81;4883908;29;20249;-64
2022/05/30 09:13:58;;;;;;;10.35;7.88;;;;;;;20.58;53.76;94573.91;4886637;29;20234;-67
2022/05/30 09:16:35;;;;;;;10.75;7.97;;;;;;;20.65;53.04;94571.13;4883792;29;20839;-66
2022/05/30 09:19:03;;;;;;;9.25;7.65;;;;;;;20.68;51.10;94568.00;4884488;29;20667;-64
2022/05/30 09:21:31;;;;;;;8.65;7.50;;;;;;;20.53;52.04;94576.41;4872139;29;20690;-62
2022/05/30 09:23:59;;;;;;;8.75;7.43;;;;;;;20.65;53.07;94569.28;4865061;29;20237;-67
2022/05/30 09:26:28;;;;;;;10.52;7.60;;;;;;;20.80;52.27;94574.22;4872540;29;20360;-66
2022/05/30 09:29:00;;;;;;;7.20;6.50;;;;;;;21.07;50.49;94572.00;4885460;29;20237;-68
2022/05/30 09:31:43;;;;;;;8.35;7.55;;;;;;;21.15;51.49;94581.56;4884428;29;20223;-67
2022/05/30 09:34:49;;;;;;;6.82;6.15;;;;;;;21.28;51.19;94585.91;4867446;29;20249;-62
2022/05/30 09:37:32;;;;;;;8.25;6.40;;;;;;;21.29;50.51;94582.19;4837496;29;20255;-65
2022/05/30 09:39:58;;;;;;;7.97;7.15;;;;;;;21.43;50.59;94583.63;4892270;29;20263;-67
2022/05/30 09:42:37;;;;;;;10.77;7.97;;;;;;;21.51;50.26;94585.97;4864564;29;20567;-67
2022/05/30 09:45:13;;;;;;;8.48;7.53;;;;;;;21.51;50.80;94577.13;4871305;29;20317;-66
2022/05/30 09:47:59;;;;;;;8.82;7.93;;;;;;;21.57;49.11;94573.53;4875626;29;20231;-68
2022/05/30 09:50:24;;;;;;;8.13;7.43;;;;;;;21.69;48.75;94571.69;4884928;29;20230;-64
2022/05/30 09:52:50;;;;;;;10.70;7.55;;;;;;;21.89;49.71;94567.84;4874749;29;20269;-66
2022/05/30 09:55:21;;;;;;;9.00;6.90;;;;;;;21.96;49.90;94572.03;4888971;29;20225;-63
2022/05/30 09:57:47;;;;;;;9.15;8.13;;;;;;;22.22;49.57;94580.69;4907216;29;20373;-66
2022/05/30 10:00:32;;;;;;;10.75;7.70;;;;;;;22.24;48.13;94573.25;4903876;29;20298;-66
2022/05/30 10:03:12;;;;;;;10.60;8.23;;;;;;;22.21;47.95;94573.69;4905627;29;20389;-65
2022/05/30 10:05:39;;;;;;;8.73;7.85;;;;;;;22.28;48.96;94577.06;4889024;29;20265;-69
2022/05/30 10:08:27;;;;;;;8.00;7.18;;;;;;;22.65;48.63;94580.25;4937546;28;20228;-67
2022/05/30 10:10:54;;;;;;;8.88;7.30;;;;;;;22.74;46.97;94583.34;4958952;28;21608;-68
2022/05/30 10:13:39;;;;;;;9.68;7.22;;;;;;;22.66;47.50;94578.38;4976644;28;20196;-66
2022/05/30 10:16:12;;;;;;;9.32;7.07;;;;;;;22.80;45.78;94577.06;4977167;28;20223;-67
2022/05/30 10:18:51;;;;;;;9.43;6.90;;;;;;;22.82;45.62;94574.94;4961479;28;20565;-63
2022/05/30 10:21:22;;;;;;;7.40;6.70;;;;;;;23.01;45.15;94577.47;4961623;28;20291;-66
2022/05/30 10:30:00;;;;;;;7.28;6.43;;;;;;;23.35;44.87;94578.34;4962619;28;20294;-61
2022/05/30 10:32:32;;;;;;;8.23;6.40;;;;;;;23.48;44.31;94566.50;4976377;28;20232;-62
2022/05/30 10:35:04;;;;;;;9.55;5.80;;;;;;;23.60;43.76;94575.28;4974571;28;20390;-63
2022/05/30 10:37:57;;;;;;;9.98;6.25;;;;;;;23.66;42.60;94568.94;4971471;28;20208;-63
2022/05/30 10:40:51;;;;;;;10.25;6.15;;;;;;;23.70;42.03;94569.25;4961086;28;20222;-63
2022/05/30 10:43:26;;;;;;;9.30;6.03;;;;;;;23.91;43.02;94573.13;4973176;28;20216;-62
2022/05/30 10:46:06;;;;;;;9.73;6.15;;;;;;;24.02;43.21;94569.50;4958824;28;20227;-63
2022/05/30 10:48:43;;;;;;;6.70;5.93;;;;;;;24.24;41.65;94572.22;4960274;28;20232;-62
2022/05/30 10:51:36;;;;;;;7.18;6.47;;;;;;;24.26;43.18;94572.81;4961965;28;20227;-68
2022/05/30 10:54:05;;;;;;;8.20;6.43;;;;;;;24.41;42.81;94575.72;4978099;28;20224;-66
2022/05/30 10:56:52;;;;;;;9.88;6.13;;;;;;;24.48;41.50;94564.78;4962168;28;20228;-67
2022/05/30 10:59:29;;;;;;;9.27;6.20;;;;;;;24.66;42.16;94582.50;4979016;28;20256;-63
2022/05/30 11:02:01;;;;;;;7.57;5.85;;;;;;;24.32;40.88;94571.00;4961126;28;20314;-63
2022/05/30 11:04:48;;;;;;;6.85;5.85;;;;;;;24.41;40.26;94570.34;4963486;28;20200;-62
2022/05/30 11:07:38;;;;;;;7.90;6.25;;;;;;;24.68;40.47;94568.81;4963502;28;20223;-61
2022/05/30 11:10:33;;;;;;;7.28;5.95;;;;;;;24.57;39.31;94560.63;4941198;29;20780;-61
2022/05/30 11:13:31;;;;;;;6.95;6.25;;;;;;;24.92;39.74;94562.09;4865274;29;20235;-63
2022/05/30 11:16:05;;;;;;;6.93;6.00;;;;;;;24.97;38.43;94562.16;4864471;29;20250;-63
2022/05/30 11:18:44;;;;;;;6.65;5.90;;;;;;;25.05;38.85;94560.91;4847997;29;20332;-62
2022/05/30 11:21:10;;;;;;;7.47;5.93;;;;;;;25.28;39.55;94562.50;4864176;29;20599;-66
2022/05/30 11:23:35;;;;;;;6.20;5.60;;;;;;;25.30;38.99;94557.66;4865296;29;20235;-63
2022/05/30 11:26:38;;;;;;;8.27;5.40;;;;;;;25.41;37.11;94567.44;4867007;29;20363;-61
2022/05/30 11:30:14;;;;;;;8.60;5.43;;;;;;;25.77;37.12;94566.94;4866248;29;20258;-61
2022/05/30 11:32:46;;;;;;;6.50;5.80;;;;;;;25.68;38.00;94572.00;4798280;29;20256;-67
2022/05/30 11:35:20;;;;;;;7.47;5.45;;;;;;;25.59;37.07;94570.84;4781214;29;20236;-63
2022/05/30 11:37:52;;;;;;;5.95;5.35;;;;;;;25.67;37.50;94571.19;4783284;29;20240;-62
2022/05/30 11:40:44;;;;;;;7.82;5.47;;;;;;;25.73;36.65;94569.34;4778393;29;20202;-67
2022/05/30 11:43:28;;;;;;;7.20;5.88;;;;;;;25.87;37.40;94564.34;4795702;29;20705;-66
2022/05/30 11:46:10;;;;;;;6.15;5.50;;;;;;;26.01;37.22;94565.56;4760402;29;20275;-62
2022/05/30 11:48:47;;;;;;;8.57;5.82;;;;;;;26.07;37.03;94561.00;4777670;29;20239;-64
2022/05/30 11:51:21;;;;;;;7.43;5.53;;;;;;;26.21;37.27;94554.09;4831857;29;20609;-67
2022/05/30 11:54:21;;;;;;;6.70;5.97;;;;;;;26.46;36.26;94560.69;4829299;29;20228;-67
2022/05/30 11:56:49;;;;;;;7.93;5.95;;;;;;;26.48;36.54;94561.22;4829772;29;20772;-64
2022/05/30 11:59:30;;;;;;;7.90;6.20;;;;;;;26.73;35.79;94561.38;4826915;29;20271;-64
2022/05/30 12:01:59;;;;;;;7.57;5.15;;;;;;;26.54;34.92;94560.19;4850664;29;20255;-64